sensor_id;sensor_type;location;lat;lon;timestamp;temperature;humidity
23116;DHT22;11727;52.134;5.052;2023-09-12T00:01:28;19.70;99.90
23116;DHT22;11727;52.134;5.052;2023-09-12T00:03:58;19.70;99.90
23116;DHT22;11727;52.134;5.052;2023-09-12T00:06:24;19.70;99.90
23116;DHT22;11727;52.134;5.052;2023-09-12T00:08:50;19.70;99.90
23116;DHT22;11727;52.134;5.052;2023-09-12T00:11:16;19.60;99.90
23116;DHT22;11727;52.134;5.052;2023-09-12T00:13:42;19.60;99.90
23116;DHT22;11727;52.134;5.052;2023-09-12T00:16:08;19.60;99.90
23116;DHT22;11727;52.134;5.052;2023-09-12T00:18:38;19.50;99.90
23116;DHT22;11727;52.134;5.052;2023-09-12T00:21:04;19.50;99.90
23116;DHT22;11727;52.134;5.052;2023-09-12T00:23:29;19.50;99.90
23116;DHT22;11727;52.134;5.052;2023-09-12T00:25:57;19.50;99.90
23116;DHT22;11727;52.134;5.052;2023-09-12T00:28:23;19.40;99.90
23116;DHT22;11727;52.134;5.052;2023-09-12T00:30:49;19.40;99.90
23116;DHT22;11727;52.134;5.052;2023-09-12T00:33:14;19.40;99.90
23116;DHT22;11727;52.134;5.052;2023-09-12T00:35:40;19.40;99.90
23116;DHT22;11727;52.134;5.052;2023-09-12T00:38:06;19.40;99.90
23116;DHT22;11727;52.134;5.052;2023-09-12T00:40:32;19.30;99.90
23116;DHT22;11727;52.134;5.052;2023-09-12T00:42:58;19.30;99.90
23116;DHT22;11727;52.134;5.052;2023-09-12T00:45:25;19.30;99.90
23116;DHT22;11727;52.134;5.052;2023-09-12T00:47:51;19.30;99.90
23116;DHT22;11727;52.134;5.052;2023-09-12T00:50:19;19.20;99.90
23116;DHT22;11727;52.134;5.052;2023-09-12T00:52:46;19.20;99.90
23116;DHT22;11727;52.134;5.052;2023-09-12T00:55:13;19.10;99.90
23116;DHT22;11727;52.134;5.052;2023-09-12T00:57:39;19.20;99.90
23116;DHT22;11727;52.134;5.052;2023-09-12T01:00:07;19.10;99.90
23116;DHT22;11727;52.134;5.052;2023-09-12T01:02:41;19.10;99.90
23116;DHT22;11727;52.134;5.052;2023-09-12T01:05:07;19.10;99.90
23116;DHT22;11727;52.134;5.052;2023-09-12T01:07:35;19.10;99.90
23116;DHT22;11727;52.134;5.052;2023-09-12T01:10:01;19.10;99.90
23116;DHT22;11727;52.134;5.052;2023-09-12T01:12:27;19.10;99.90
23116;DHT22;11727;52.134;5.052;2023-09-12T01:14:53;19.10;99.90
23116;DHT22;11727;52.134;5.052;2023-09-12T01:17:18;19.00;99.90
23116;DHT22;11727;52.134;5.052;2023-09-12T01:19:44;19.00;99.90
23116;DHT22;11727;52.134;5.052;2023-09-12T01:22:27;19.00;99.90
23116;DHT22;11727;52.134;5.052;2023-09-12T01:27:58;19.00;99.90
23116;DHT22;11727;52.134;5.052;2023-09-12T01:30:25;18.90;99.90
23116;DHT22;11727;52.134;5.052;2023-09-12T01:32:53;18.90;99.90
23116;DHT22;11727;52.134;5.052;2023-09-12T01:35:19;18.90;99.90
23116;DHT22;11727;52.134;5.052;2023-09-12T01:37:45;18.90;99.90
23116;DHT22;11727;52.134;5.052;2023-09-12T01:40:11;18.90;99.90
23116;DHT22;11727;52.134;5.052;2023-09-12T01:42:42;18.80;99.90
23116;DHT22;11727;52.134;5.052;2023-09-12T01:45:15;18.80;99.90
23116;DHT22;11727;52.134;5.052;2023-09-12T01:47:42;18.80;99.90
23116;DHT22;11727;52.134;5.052;2023-09-12T01:50:09;18.80;99.90
23116;DHT22;11727;52.134;5.052;2023-09-12T01:52:38;18.80;99.90
23116;DHT22;11727;52.134;5.052;2023-09-12T01:55:05;18.80;99.90
23116;DHT22;11727;52.134;5.052;2023-09-12T01:57:32;18.80;99.90
23116;DHT22;11727;52.134;5.052;2023-09-12T01:59:58;18.70;99.90
23116;DHT22;11727;52.134;5.052;2023-09-12T02:02:23;18.70;99.90
23116;DHT22;11727;52.134;5.052;2023-09-12T02:05:18;18.70;99.90
23116;DHT22;11727;52.134;5.052;2023-09-12T02:07:45;18.70;99.90
23116;DHT22;11727;52.134;5.052;2023-09-12T02:10:11;18.70;99.90
23116;DHT22;11727;52.134;5.052;2023-09-12T02:12:37;18.70;99.90
23116;DHT22;11727;52.134;5.052;2023-09-12T02:15:04;18.70;99.90
23116;DHT22;11727;52.134;5.052;2023-09-12T02:17:30;18.70;99.90
23116;DHT22;11727;52.134;5.052;2023-09-12T02:19:55;18.60;99.90
23116;DHT22;11727;52.134;5.052;2023-09-12T02:22:21;18.60;99.90
23116;DHT22;11727;52.134;5.052;2023-09-12T02:24:46;18.60;99.90
23116;DHT22;11727;52.134;5.052;2023-09-12T02:27:12;18.60;99.90
23116;DHT22;11727;52.134;5.052;2023-09-12T02:29:41;18.60;99.90
23116;DHT22;11727;52.134;5.052;2023-09-12T02:32:08;18.60;99.90
23116;DHT22;11727;52.134;5.052;2023-09-12T02:34:34;18.60;99.90
23116;DHT22;11727;52.134;5.052;2023-09-12T02:36:59;18.60;99.90
23116;DHT22;11727;52.134;5.052;2023-09-12T02:39:25;18.60;99.90
23116;DHT22;11727;52.134;5.052;2023-09-12T02:41:51;18.60;99.90
23116;DHT22;11727;52.134;5.052;2023-09-12T02:44:16;18.60;99.90
23116;DHT22;11727;52.134;5.052;2023-09-12T02:46:42;18.60;99.90
23116;DHT22;11727;52.134;5.052;2023-09-12T02:49:07;18.60;99.90
23116;DHT22;11727;52.134;5.052;2023-09-12T02:51:33;18.60;99.90
23116;DHT22;11727;52.134;5.052;2023-09-12T02:53:59;18.60;99.90
23116;DHT22;11727;52.134;5.052;2023-09-12T02:56:24;18.60;99.90
23116;DHT22;11727;52.134;5.052;2023-09-12T02:58:50;18.60;99.90
23116;DHT22;11727;52.134;5.052;2023-09-12T03:01:17;18.60;99.90
23116;DHT22;11727;52.134;5.052;2023-09-12T03:03:45;18.60;99.90
23116;DHT22;11727;52.134;5.052;2023-09-12T03:06:12;18.60;99.90
23116;DHT22;11727;52.134;5.052;2023-09-12T03:08:42;18.60;99.90
23116;DHT22;11727;52.134;5.052;2023-09-12T03:11:09;18.60;99.90
23116;DHT22;11727;52.134;5.052;2023-09-12T03:13:36;18.60;99.90
23116;DHT22;11727;52.134;5.052;2023-09-12T03:16:01;18.60;99.90
23116;DHT22;11727;52.134;5.052;2023-09-12T03:18:27;18.60;99.90
23116;DHT22;11727;52.134;5.052;2023-09-12T03:20:54;18.60;99.90
23116;DHT22;11727;52.134;5.052;2023-09-12T03:23:20;18.60;99.90
23116;DHT22;11727;52.134;5.052;2023-09-12T03:25:45;18.60;99.90
23116;DHT22;11727;52.134;5.052;2023-09-12T03:28:11;18.60;99.90
23116;DHT22;11727;52.134;5.052;2023-09-12T03:30:39;18.50;99.90
23116;DHT22;11727;52.134;5.052;2023-09-12T03:33:05;18.60;99.90
23116;DHT22;11727;52.134;5.052;2023-09-12T03:35:32;18.60;99.90
23116;DHT22;11727;52.134;5.052;2023-09-12T03:37:59;18.60;99.90
23116;DHT22;11727;52.134;5.052;2023-09-12T03:40:25;18.60;99.90
23116;DHT22;11727;52.134;5.052;2023-09-12T03:42:51;18.60;99.90
23116;DHT22;11727;52.134;5.052;2023-09-12T03:45:16;18.60;99.90
23116;DHT22;11727;52.134;5.052;2023-09-12T03:47:42;18.60;99.90
23116;DHT22;11727;52.134;5.052;2023-09-12T03:50:12;18.70;99.90
23116;DHT22;11727;52.134;5.052;2023-09-12T03:52:37;18.70;99.90
23116;DHT22;11727;52.134;5.052;2023-09-12T03:55:03;18.70;99.90
23116;DHT22;11727;52.134;5.052;2023-09-12T03:57:29;18.70;99.90
23116;DHT22;11727;52.134;5.052;2023-09-12T03:59:54;18.70;99.90
23116;DHT22;11727;52.134;5.052;2023-09-12T04:02:20;18.80;99.90
23116;DHT22;11727;52.134;5.052;2023-09-12T04:04:45;18.70;99.90
23116;DHT22;11727;52.134;5.052;2023-09-12T04:07:11;18.80;99.90
23116;DHT22;11727;52.134;5.052;2023-09-12T04:09:37;18.80;99.90
23116;DHT22;11727;52.134;5.052;2023-09-12T04:12:03;18.80;99.90
23116;DHT22;11727;52.134;5.052;2023-09-12T04:14:28;18.80;99.90
23116;DHT22;11727;52.134;5.052;2023-09-12T04:16:54;18.80;99.90
23116;DHT22;11727;52.134;5.052;2023-09-12T04:19:19;18.80;99.90
23116;DHT22;11727;52.134;5.052;2023-09-12T04:21:45;18.80;99.90
23116;DHT22;11727;52.134;5.052;2023-09-12T04:24:10;18.80;99.90
23116;DHT22;11727;52.134;5.052;2023-09-12T04:26:36;18.80;99.90
23116;DHT22;11727;52.134;5.052;2023-09-12T04:29:02;18.80;99.90
23116;DHT22;11727;52.134;5.052;2023-09-12T04:31:27;18.80;99.90
23116;DHT22;11727;52.134;5.052;2023-09-12T04:33:53;18.80;99.90
23116;DHT22;11727;52.134;5.052;2023-09-12T04:36:19;18.80;99.90
23116;DHT22;11727;52.134;5.052;2023-09-12T04:38:45;18.80;99.90
23116;DHT22;11727;52.134;5.052;2023-09-12T04:41:12;18.90;99.90
23116;DHT22;11727;52.134;5.052;2023-09-12T04:43:42;18.80;99.90
23116;DHT22;11727;52.134;5.052;2023-09-12T04:46:08;18.90;99.90
23116;DHT22;11727;52.134;5.052;2023-09-12T04:48:34;18.90;99.90
23116;DHT22;11727;52.134;5.052;2023-09-12T04:50:59;18.90;99.90
23116;DHT22;11727;52.134;5.052;2023-09-12T04:53:25;18.90;99.90
23116;DHT22;11727;52.134;5.052;2023-09-12T04:55:54;18.90;99.90
23116;DHT22;11727;52.134;5.052;2023-09-12T04:58:19;18.90;99.90
23116;DHT22;11727;52.134;5.052;2023-09-12T05:00:45;18.90;99.90
23116;DHT22;11727;52.134;5.052;2023-09-12T05:03:11;18.80;99.90
23116;DHT22;11727;52.134;5.052;2023-09-12T05:05:39;18.80;99.90
23116;DHT22;11727;52.134;5.052;2023-09-12T05:08:05;18.80;99.90
23116;DHT22;11727;52.134;5.052;2023-09-12T05:10:31;18.80;99.90
23116;DHT22;11727;52.134;5.052;2023-09-12T05:12:56;18.80;99.90
23116;DHT22;11727;52.134;5.052;2023-09-12T05:15:22;18.80;99.90
23116;DHT22;11727;52.134;5.052;2023-09-12T05:17:48;18.80;99.90
23116;DHT22;11727;52.134;5.052;2023-09-12T05:20:13;18.80;99.90
23116;DHT22;11727;52.134;5.052;2023-09-12T05:22:39;18.80;99.90
23116;DHT22;11727;52.134;5.052;2023-09-12T05:25:07;18.80;99.90
23116;DHT22;11727;52.134;5.052;2023-09-12T05:27:33;18.80;99.90
23116;DHT22;11727;52.134;5.052;2023-09-12T05:29:58;18.80;99.90
23116;DHT22;11727;52.134;5.052;2023-09-12T05:32:26;18.80;99.90
23116;DHT22;11727;52.134;5.052;2023-09-12T05:34:51;18.80;99.90
23116;DHT22;11727;52.134;5.052;2023-09-12T05:37:17;18.70;99.90
23116;DHT22;11727;52.134;5.052;2023-09-12T05:39:44;18.70;99.90
23116;DHT22;11727;52.134;5.052;2023-09-12T05:42:10;18.80;99.90
23116;DHT22;11727;52.134;5.052;2023-09-12T05:44:44;18.80;99.90
23116;DHT22;11727;52.134;5.052;2023-09-12T05:47:11;18.80;99.90
23116;DHT22;11727;52.134;5.052;2023-09-12T05:50:10;18.80;99.90
23116;DHT22;11727;52.134;5.052;2023-09-12T05:53:05;18.80;99.90
23116;DHT22;11727;52.134;5.052;2023-09-12T05:55:33;18.80;99.90
23116;DHT22;11727;52.134;5.052;2023-09-12T05:57:59;18.80;99.90
23116;DHT22;11727;52.134;5.052;2023-09-12T06:00:25;18.80;99.90
23116;DHT22;11727;52.134;5.052;2023-09-12T06:02:51;18.80;99.90
23116;DHT22;11727;52.134;5.052;2023-09-12T06:05:24;18.90;99.90
23116;DHT22;11727;52.134;5.052;2023-09-12T06:07:49;18.90;99.90
23116;DHT22;11727;52.134;5.052;2023-09-12T06:10:15;18.90;99.90
23116;DHT22;11727;52.134;5.052;2023-09-12T06:12:45;18.90;99.90
23116;DHT22;11727;52.134;5.052;2023-09-12T06:15:39;18.90;99.90
23116;DHT22;11727;52.134;5.052;2023-09-12T06:18:14;19.00;99.90
23116;DHT22;11727;52.134;5.052;2023-09-12T06:20:39;19.00;99.90
23116;DHT22;11727;52.134;5.052;2023-09-12T06:23:05;19.00;99.90
23116;DHT22;11727;52.134;5.052;2023-09-12T06:25:30;19.00;99.90
23116;DHT22;11727;52.134;5.052;2023-09-12T06:27:56;19.00;99.90
23116;DHT22;11727;52.134;5.052;2023-09-12T06:30:22;19.10;99.90
23116;DHT22;11727;52.134;5.052;2023-09-12T06:32:47;19.10;99.90
23116;DHT22;11727;52.134;5.052;2023-09-12T06:35:13;19.20;99.90
23116;DHT22;11727;52.134;5.052;2023-09-12T06:37:38;19.20;99.90
23116;DHT22;11727;52.134;5.052;2023-09-12T06:40:06;19.30;99.90
23116;DHT22;11727;52.134;5.052;2023-09-12T06:42:32;19.30;99.90
23116;DHT22;11727;52.134;5.052;2023-09-12T06:44:57;19.40;99.90
23116;DHT22;11727;52.134;5.052;2023-09-12T06:47:23;19.40;99.90
23116;DHT22;11727;52.134;5.052;2023-09-12T06:49:48;19.40;99.90
23116;DHT22;11727;52.134;5.052;2023-09-12T06:52:14;19.40;99.90
23116;DHT22;11727;52.134;5.052;2023-09-12T06:54:40;19.40;99.90
23116;DHT22;11727;52.134;5.052;2023-09-12T06:57:05;19.40;99.90
23116;DHT22;11727;52.134;5.052;2023-09-12T06:59:31;19.40;99.90
23116;DHT22;11727;52.134;5.052;2023-09-12T07:01:56;19.50;99.90
23116;DHT22;11727;52.134;5.052;2023-09-12T07:04:22;19.50;99.90
23116;DHT22;11727;52.134;5.052;2023-09-12T07:06:47;19.50;99.90
23116;DHT22;11727;52.134;5.052;2023-09-12T07:09:13;19.50;99.90
23116;DHT22;11727;52.134;5.052;2023-09-12T07:11:41;19.50;99.90
23116;DHT22;11727;52.134;5.052;2023-09-12T07:14:06;19.50;99.90
23116;DHT22;11727;52.134;5.052;2023-09-12T07:16:33;19.50;99.90
23116;DHT22;11727;52.134;5.052;2023-09-12T07:18:58;19.60;99.90
23116;DHT22;11727;52.134;5.052;2023-09-12T07:21:24;19.60;99.90
23116;DHT22;11727;52.134;5.052;2023-09-12T07:23:50;19.60;99.90
23116;DHT22;11727;52.134;5.052;2023-09-12T07:26:15;19.70;99.90
23116;DHT22;11727;52.134;5.052;2023-09-12T07:28:41;19.80;99.90
23116;DHT22;11727;52.134;5.052;2023-09-12T07:31:07;19.90;99.90
23116;DHT22;11727;52.134;5.052;2023-09-12T07:33:33;19.90;99.90
23116;DHT22;11727;52.134;5.052;2023-09-12T07:35:58;20.00;99.90
23116;DHT22;11727;52.134;5.052;2023-09-12T07:38:25;19.90;99.90
23116;DHT22;11727;52.134;5.052;2023-09-12T07:40:50;19.80;99.90
23116;DHT22;11727;52.134;5.052;2023-09-12T07:43:16;19.90;99.90
23116;DHT22;11727;52.134;5.052;2023-09-12T07:45:42;19.90;99.90
23116;DHT22;11727;52.134;5.052;2023-09-12T07:48:09;19.90;99.90
23116;DHT22;11727;52.134;5.052;2023-09-12T07:50:36;19.90;99.90
23116;DHT22;11727;52.134;5.052;2023-09-12T07:53:04;20.00;99.90
23116;DHT22;11727;52.134;5.052;2023-09-12T07:55:30;20.00;99.90
23116;DHT22;11727;52.134;5.052;2023-09-12T07:58:02;20.00;99.90
23116;DHT22;11727;52.134;5.052;2023-09-12T08:00:27;20.10;99.90
23116;DHT22;11727;52.134;5.052;2023-09-12T08:02:53;20.10;99.90
23116;DHT22;11727;52.134;5.052;2023-09-12T08:05:19;20.10;99.90
23116;DHT22;11727;52.134;5.052;2023-09-12T08:07:44;20.20;99.90
23116;DHT22;11727;52.134;5.052;2023-09-12T08:10:10;20.20;99.90
23116;DHT22;11727;52.134;5.052;2023-09-12T08:12:36;20.20;99.90
23116;DHT22;11727;52.134;5.052;2023-09-12T08:15:04;20.20;99.90
23116;DHT22;11727;52.134;5.052;2023-09-12T08:17:30;20.20;99.90
23116;DHT22;11727;52.134;5.052;2023-09-12T08:19:55;20.20;99.90
23116;DHT22;11727;52.134;5.052;2023-09-12T08:22:21;20.20;99.90
23116;DHT22;11727;52.134;5.052;2023-09-12T08:24:47;20.20;99.90
23116;DHT22;11727;52.134;5.052;2023-09-12T08:27:12;20.20;99.90
23116;DHT22;11727;52.134;5.052;2023-09-12T08:29:39;20.20;99.90
23116;DHT22;11727;52.134;5.052;2023-09-12T08:32:04;20.20;99.90
23116;DHT22;11727;52.134;5.052;2023-09-12T08:34:30;20.20;99.90
23116;DHT22;11727;52.134;5.052;2023-09-12T08:36:56;20.30;99.90
23116;DHT22;11727;52.134;5.052;2023-09-12T08:39:27;20.30;99.90
23116;DHT22;11727;52.134;5.052;2023-09-12T08:41:53;20.30;99.90
23116;DHT22;11727;52.134;5.052;2023-09-12T08:44:20;20.40;99.90
23116;DHT22;11727;52.134;5.052;2023-09-12T08:46:47;20.40;99.90
23116;DHT22;11727;52.134;5.052;2023-09-12T08:49:12;20.40;99.90
23116;DHT22;11727;52.134;5.052;2023-09-12T08:51:41;20.50;99.90
23116;DHT22;11727;52.134;5.052;2023-09-12T08:54:10;20.60;99.90
23116;DHT22;11727;52.134;5.052;2023-09-12T08:56:40;20.70;99.90
23116;DHT22;11727;52.134;5.052;2023-09-12T08:59:07;20.60;99.90
23116;DHT22;11727;52.134;5.052;2023-09-12T09:01:34;20.70;99.90
23116;DHT22;11727;52.134;5.052;2023-09-12T09:04:02;20.70;99.90
23116;DHT22;11727;52.134;5.052;2023-09-12T09:06:30;20.70;99.90
23116;DHT22;11727;52.134;5.052;2023-09-12T09:08:56;20.70;99.90
23116;DHT22;11727;52.134;5.052;2023-09-12T09:11:22;20.70;99.90
23116;DHT22;11727;52.134;5.052;2023-09-12T09:13:50;20.60;99.90
23116;DHT22;11727;52.134;5.052;2023-09-12T09:16:17;20.60;99.90
23116;DHT22;11727;52.134;5.052;2023-09-12T09:18:50;20.60;99.90
23116;DHT22;11727;52.134;5.052;2023-09-12T09:21:25;20.70;99.90
23116;DHT22;11727;52.134;5.052;2023-09-12T09:23:52;20.70;99.90
23116;DHT22;11727;52.134;5.052;2023-09-12T09:26:18;20.70;99.90
23116;DHT22;11727;52.134;5.052;2023-09-12T09:28:44;20.80;99.90
23116;DHT22;11727;52.134;5.052;2023-09-12T09:31:13;20.80;99.90
23116;DHT22;11727;52.134;5.052;2023-09-12T09:33:42;20.90;99.90
23116;DHT22;11727;52.134;5.052;2023-09-12T09:36:16;21.00;99.90
23116;DHT22;11727;52.134;5.052;2023-09-12T09:38:42;21.10;99.90
23116;DHT22;11727;52.134;5.052;2023-09-12T09:41:08;21.30;99.90
23116;DHT22;11727;52.134;5.052;2023-09-12T09:43:34;21.50;99.90
23116;DHT22;11727;52.134;5.052;2023-09-12T09:46:00;21.70;99.90
23116;DHT22;11727;52.134;5.052;2023-09-12T09:48:26;21.90;99.90
23116;DHT22;11727;52.134;5.052;2023-09-12T09:51:02;22.00;99.90
23116;DHT22;11727;52.134;5.052;2023-09-12T09:53:29;22.10;99.90
23116;DHT22;11727;52.134;5.052;2023-09-12T09:56:14;22.10;99.90
23116;DHT22;11727;52.134;5.052;2023-09-12T09:58:54;22.20;99.90
23116;DHT22;11727;52.134;5.052;2023-09-12T10:01:22;22.10;99.90
23116;DHT22;11727;52.134;5.052;2023-09-12T10:03:49;22.10;99.90
23116;DHT22;11727;52.134;5.052;2023-09-12T10:06:17;22.00;99.90
23116;DHT22;11727;52.134;5.052;2023-09-12T10:08:50;22.00;99.90
23116;DHT22;11727;52.134;5.052;2023-09-12T10:11:18;22.10;99.90
23116;DHT22;11727;52.134;5.052;2023-09-12T10:13:53;22.10;99.90
23116;DHT22;11727;52.134;5.052;2023-09-12T10:16:21;22.10;99.90
23116;DHT22;11727;52.134;5.052;2023-09-12T10:18:59;22.10;99.90
23116;DHT22;11727;52.134;5.052;2023-09-12T10:21:30;22.00;99.90
23116;DHT22;11727;52.134;5.052;2023-09-12T10:23:59;22.00;99.90
23116;DHT22;11727;52.134;5.052;2023-09-12T10:26:25;22.10;99.90
23116;DHT22;11727;52.134;5.052;2023-09-12T10:28:52;22.20;99.90
23116;DHT22;11727;52.134;5.052;2023-09-12T10:31:17;22.20;99.90
23116;DHT22;11727;52.134;5.052;2023-09-12T10:33:45;22.20;99.90
23116;DHT22;11727;52.134;5.052;2023-09-12T10:36:12;22.10;99.90
23116;DHT22;11727;52.134;5.052;2023-09-12T10:38:44;22.10;99.90
23116;DHT22;11727;52.134;5.052;2023-09-12T10:41:14;22.10;99.90
23116;DHT22;11727;52.134;5.052;2023-09-12T10:43:41;22.10;99.90
23116;DHT22;11727;52.134;5.052;2023-09-12T10:46:07;22.20;99.90
23116;DHT22;11727;52.134;5.052;2023-09-12T10:48:35;22.30;99.90
23116;DHT22;11727;52.134;5.052;2023-09-12T10:51:01;22.50;99.90
23116;DHT22;11727;52.134;5.052;2023-09-12T10:56:17;22.70;99.90
23116;DHT22;11727;52.134;5.052;2023-09-12T11:01:35;22.80;99.90
23116;DHT22;11727;52.134;5.052;2023-09-12T11:06:49;22.80;99.90
23116;DHT22;11727;52.134;5.052;2023-09-12T11:09:24;22.80;99.90
23116;DHT22;11727;52.134;5.052;2023-09-12T12:07:35;22.80;99.90
23116;DHT22;11727;52.134;5.052;2023-09-12T12:10:01;22.70;99.90
23116;DHT22;11727;52.134;5.052;2023-09-12T12:12:29;22.80;99.90
23116;DHT22;11727;52.134;5.052;2023-09-12T12:14:55;22.80;99.90
23116;DHT22;11727;52.134;5.052;2023-09-12T12:17:21;22.70;99.90
23116;DHT22;11727;52.134;5.052;2023-09-12T12:19:49;22.80;99.90
23116;DHT22;11727;52.134;5.052;2023-09-12T12:25:15;22.70;99.90
23116;DHT22;11727;52.134;5.052;2023-09-12T12:27:42;22.60;99.90
23116;DHT22;11727;52.134;5.052;2023-09-12T12:30:13;22.50;99.90
23116;DHT22;11727;52.134;5.052;2023-09-12T12:32:41;22.40;99.90
23116;DHT22;11727;52.134;5.052;2023-09-12T12:35:16;22.40;99.90
23116;DHT22;11727;52.134;5.052;2023-09-12T12:37:50;22.30;99.90
23116;DHT22;11727;52.134;5.052;2023-09-12T12:40:50;22.20;99.90
23116;DHT22;11727;52.134;5.052;2023-09-12T12:43:46;22.00;99.90
23116;DHT22;11727;52.134;5.052;2023-09-12T12:46:56;21.90;99.90
23116;DHT22;11727;52.134;5.052;2023-09-12T12:49:22;21.90;99.90
23116;DHT22;11727;52.134;5.052;2023-09-12T12:51:48;21.80;99.90
23116;DHT22;11727;52.134;5.052;2023-09-12T12:54:15;21.60;99.90
23116;DHT22;11727;52.134;5.052;2023-09-12T12:56:43;21.40;99.90
23116;DHT22;11727;52.134;5.052;2023-09-12T12:59:10;21.10;99.90
23116;DHT22;11727;52.134;5.052;2023-09-12T13:01:37;20.80;99.90
23116;DHT22;11727;52.134;5.052;2023-09-12T13:04:07;20.70;99.90
23116;DHT22;11727;52.134;5.052;2023-09-12T13:06:38;20.50;99.90
23116;DHT22;11727;52.134;5.052;2023-09-12T13:09:05;20.40;99.90
23116;DHT22;11727;52.134;5.052;2023-09-12T13:11:32;20.30;99.90
23116;DHT22;11727;52.134;5.052;2023-09-12T13:14:01;20.20;99.90
23116;DHT22;11727;52.134;5.052;2023-09-12T13:16:28;20.20;99.90
23116;DHT22;11727;52.134;5.052;2023-09-12T13:18:54;20.30;99.90
23116;DHT22;11727;52.134;5.052;2023-09-12T13:21:19;20.30;99.90
23116;DHT22;11727;52.134;5.052;2023-09-12T13:23:45;20.30;99.90
23116;DHT22;11727;52.134;5.052;2023-09-12T13:26:11;20.40;99.90
23116;DHT22;11727;52.134;5.052;2023-09-12T13:28:37;20.50;99.90
23116;DHT22;11727;52.134;5.052;2023-09-12T13:31:04;20.50;99.90
23116;DHT22;11727;52.134;5.052;2023-09-12T13:33:33;20.60;99.90
23116;DHT22;11727;52.134;5.052;2023-09-12T13:36:01;20.70;99.90
23116;DHT22;11727;52.134;5.052;2023-09-12T13:38:26;20.80;99.90
23116;DHT22;11727;52.134;5.052;2023-09-12T13:40:52;20.80;99.90
23116;DHT22;11727;52.134;5.052;2023-09-12T13:43:17;20.90;99.90
23116;DHT22;11727;52.134;5.052;2023-09-12T13:45:47;21.00;99.90
23116;DHT22;11727;52.134;5.052;2023-09-12T13:48:13;21.00;99.90
23116;DHT22;11727;52.134;5.052;2023-09-12T13:50:39;21.10;99.90
23116;DHT22;11727;52.134;5.052;2023-09-12T13:53:05;21.20;99.90
23116;DHT22;11727;52.134;5.052;2023-09-12T13:55:33;21.30;99.90
23116;DHT22;11727;52.134;5.052;2023-09-12T13:58:01;21.30;99.90
23116;DHT22;11727;52.134;5.052;2023-09-12T14:00:26;21.30;99.90
23116;DHT22;11727;52.134;5.052;2023-09-12T14:02:52;21.30;99.90
23116;DHT22;11727;52.134;5.052;2023-09-12T14:05:17;21.40;99.90
23116;DHT22;11727;52.134;5.052;2023-09-12T14:07:43;21.30;99.90
23116;DHT22;11727;52.134;5.052;2023-09-12T14:10:09;21.30;99.90
23116;DHT22;11727;52.134;5.052;2023-09-12T14:12:35;21.30;99.90
23116;DHT22;11727;52.134;5.052;2023-09-12T14:15:04;21.30;99.90
23116;DHT22;11727;52.134;5.052;2023-09-12T14:17:32;21.40;99.90
23116;DHT22;11727;52.134;5.052;2023-09-12T14:19:57;21.40;99.90
23116;DHT22;11727;52.134;5.052;2023-09-12T14:22:23;21.40;99.90
23116;DHT22;11727;52.134;5.052;2023-09-12T14:24:49;21.50;99.90
23116;DHT22;11727;52.134;5.052;2023-09-12T14:27:16;21.60;99.90
23116;DHT22;11727;52.134;5.052;2023-09-12T14:29:41;21.70;99.90
23116;DHT22;11727;52.134;5.052;2023-09-12T14:32:11;21.70;99.90
23116;DHT22;11727;52.134;5.052;2023-09-12T14:34:37;21.70;99.90
23116;DHT22;11727;52.134;5.052;2023-09-12T14:37:03;21.70;99.90
23116;DHT22;11727;52.134;5.052;2023-09-12T14:39:29;21.70;99.90
23116;DHT22;11727;52.134;5.052;2023-09-12T14:41:54;21.70;99.90
23116;DHT22;11727;52.134;5.052;2023-09-12T14:44:22;21.70;99.90
23116;DHT22;11727;52.134;5.052;2023-09-12T14:46:51;21.60;99.90
23116;DHT22;11727;52.134;5.052;2023-09-12T14:49:16;21.50;99.90
23116;DHT22;11727;52.134;5.052;2023-09-12T14:51:43;21.40;99.90
23116;DHT22;11727;52.134;5.052;2023-09-12T14:54:08;21.30;99.90
23116;DHT22;11727;52.134;5.052;2023-09-12T14:56:34;21.30;99.90
23116;DHT22;11727;52.134;5.052;2023-09-12T14:59:01;21.30;99.90
23116;DHT22;11727;52.134;5.052;2023-09-12T15:01:27;21.30;99.90
23116;DHT22;11727;52.134;5.052;2023-09-12T15:03:53;21.20;99.90
23116;DHT22;11727;52.134;5.052;2023-09-12T15:06:19;21.20;99.90
23116;DHT22;11727;52.134;5.052;2023-09-12T15:08:45;21.20;99.90
23116;DHT22;11727;52.134;5.052;2023-09-12T15:11:11;21.10;99.90
23116;DHT22;11727;52.134;5.052;2023-09-12T15:13:37;21.20;99.90
23116;DHT22;11727;52.134;5.052;2023-09-12T15:16:03;21.10;99.90
23116;DHT22;11727;52.134;5.052;2023-09-12T15:18:30;21.00;99.90
23116;DHT22;11727;52.134;5.052;2023-09-12T15:20:55;21.00;99.90
23116;DHT22;11727;52.134;5.052;2023-09-12T15:23:21;20.90;99.90
23116;DHT22;11727;52.134;5.052;2023-09-12T15:25:48;20.90;99.90
23116;DHT22;11727;52.134;5.052;2023-09-12T15:28:14;20.90;99.90
23116;DHT22;11727;52.134;5.052;2023-09-12T15:30:40;20.90;99.90
23116;DHT22;11727;52.134;5.052;2023-09-12T15:33:06;20.90;99.90
23116;DHT22;11727;52.134;5.052;2023-09-12T15:35:31;20.80;99.90
23116;DHT22;11727;52.134;5.052;2023-09-12T15:37:57;20.80;99.90
23116;DHT22;11727;52.134;5.052;2023-09-12T15:40:23;20.70;99.90
23116;DHT22;11727;52.134;5.052;2023-09-12T15:42:48;20.60;99.90
23116;DHT22;11727;52.134;5.052;2023-09-12T15:45:14;20.60;99.90
23116;DHT22;11727;52.134;5.052;2023-09-12T15:47:41;20.50;99.90
23116;DHT22;11727;52.134;5.052;2023-09-12T15:50:07;20.50;99.90
23116;DHT22;11727;52.134;5.052;2023-09-12T15:52:33;20.50;99.90
23116;DHT22;11727;52.134;5.052;2023-09-12T15:55:06;20.40;99.90
23116;DHT22;11727;52.134;5.052;2023-09-12T15:57:33;20.50;99.90
23116;DHT22;11727;52.134;5.052;2023-09-12T15:59:58;20.50;99.90
23116;DHT22;11727;52.134;5.052;2023-09-12T16:02:25;20.50;99.90
23116;DHT22;11727;52.134;5.052;2023-09-12T16:04:51;20.50;99.90
23116;DHT22;11727;52.134;5.052;2023-09-12T16:07:16;20.50;99.90
23116;DHT22;11727;52.134;5.052;2023-09-12T16:09:42;20.40;99.90
23116;DHT22;11727;52.134;5.052;2023-09-12T16:12:08;20.40;99.90
23116;DHT22;11727;52.134;5.052;2023-09-12T16:14:33;20.40;99.90
23116;DHT22;11727;52.134;5.052;2023-09-12T16:16:59;20.40;99.90
23116;DHT22;11727;52.134;5.052;2023-09-12T16:19:27;20.40;99.90
23116;DHT22;11727;52.134;5.052;2023-09-12T16:21:53;20.50;99.90
23116;DHT22;11727;52.134;5.052;2023-09-12T16:24:18;20.50;99.90
23116;DHT22;11727;52.134;5.052;2023-09-12T16:26:44;20.50;99.90
23116;DHT22;11727;52.134;5.052;2023-09-12T16:29:10;20.50;99.90
23116;DHT22;11727;52.134;5.052;2023-09-12T16:31:35;20.60;99.90
23116;DHT22;11727;52.134;5.052;2023-09-12T16:34:01;20.60;99.90
23116;DHT22;11727;52.134;5.052;2023-09-12T16:36:28;20.60;99.90
23116;DHT22;11727;52.134;5.052;2023-09-12T16:38:55;20.60;99.90
23116;DHT22;11727;52.134;5.052;2023-09-12T16:41:20;20.70;99.90